createdAt,value
2023-04-22T00:00:13.183Z,9.10
2023-04-22T00:04:15.530Z,9.20
2023-04-22T00:08:17.741Z,9.30
2023-04-22T00:12:19.760Z,9.20
2023-04-22T00:16:21.841Z,9.30
2023-04-22T00:20:23.951Z,9.10
2023-04-22T00:24:25.979Z,8.60
2023-04-22T00:28:28.396Z,8.60
2023-04-22T00:32:30.578Z,8.70
2023-04-22T00:36:32.660Z,8.70
2023-04-22T00:40:34.490Z,8.50
2023-04-22T00:44:36.826Z,8.60
2023-04-22T00:48:39.253Z,8.70
2023-04-22T00:52:41.588Z,8.70
2023-04-22T00:56:44.172Z,8.60
2023-04-22T01:00:46.674Z,8.70
2023-04-22T01:04:49.030Z,8.60
2023-04-22T01:08:51.379Z,8.70
2023-04-22T01:12:53.699Z,8.70
2023-04-22T01:16:56.395Z,8.40
2023-04-22T01:20:58.530Z,8.20
2023-04-22T01:25:00.899Z,8.20
2023-04-22T01:29:04.759Z,8.30
2023-04-22T01:33:06.939Z,8.40
2023-04-22T01:37:08.843Z,8.50
2023-04-22T01:41:10.809Z,8.40
2023-04-22T01:45:13.402Z,8.30
2023-04-22T01:49:15.387Z,8.30
2023-04-22T01:53:18.595Z,8.30
2023-04-22T01:57:20.524Z,8.30
2023-04-22T02:01:22.553Z,7.90
2023-04-22T02:05:24.662Z,7.80
2023-04-22T02:09:27.103Z,7.80
2023-04-22T02:13:37.240Z,7.90
2023-04-22T02:17:42.189Z,8.00
2023-04-22T02:21:44.381Z,8.20
2023-04-22T02:25:50.775Z,8.20
2023-04-22T02:29:53.920Z,8.10
2023-04-22T02:33:55.983Z,7.70
2023-04-22T02:37:58.199Z,7.80
2023-04-22T02:42:01.895Z,7.80
2023-04-22T02:46:04.032Z,7.60
2023-04-22T02:50:07.649Z,7.40
2023-04-22T02:54:09.717Z,7.40
2023-04-22T02:58:11.576Z,7.70
2023-04-22T03:02:13.639Z,7.90
2023-04-22T03:06:29.361Z,8.00
2023-04-22T03:10:32.438Z,8.00
2023-04-22T03:14:34.270Z,8.10
2023-04-22T03:18:36.255Z,8.00
2023-04-22T03:22:38.207Z,7.80
2023-04-22T03:26:42.713Z,8.00
2023-04-22T03:30:44.834Z,8.10
2023-04-22T03:34:47.056Z,7.90
2023-04-22T03:38:49.837Z,8.10
2023-04-22T03:42:52.184Z,8.10
2023-04-22T03:46:56.200Z,8.00
2023-04-22T03:51:03.512Z,8.10
2023-04-22T03:55:10.234Z,8.10
2023-04-22T03:59:12.249Z,8.20
2023-04-22T04:03:14.665Z,8.30
2023-04-22T04:07:17.651Z,8.00
2023-04-22T04:11:19.785Z,8.00
2023-04-22T04:15:22.380Z,8.10
2023-04-22T04:19:25.970Z,7.90
2023-04-22T04:23:28.164Z,7.90
2023-04-22T04:27:30.400Z,8.00
2023-04-22T04:31:32.624Z,8.10
2023-04-22T04:35:37.532Z,8.00
2023-04-22T04:39:42.323Z,8.00
2023-04-22T04:43:46.584Z,7.90
2023-04-22T04:48:03.262Z,8.10
2023-04-22T04:52:11.957Z,8.10
2023-04-22T04:56:14.369Z,8.10
2023-04-22T05:00:17.413Z,8.20
2023-04-22T05:04:22.455Z,8.20
2023-04-22T05:08:24.787Z,8.30
2023-04-22T05:12:30.729Z,8.40
2023-04-22T05:16:33.452Z,8.40
2023-04-22T05:20:36.371Z,7.90
2023-04-22T05:24:39.533Z,8.20
2023-04-22T05:32:58.156Z,8.10
2023-04-22T05:37:00.254Z,8.20
2023-04-22T05:41:02.428Z,8.50
2023-04-22T05:45:05.124Z,8.60
2023-04-22T05:49:07.095Z,8.50
2023-04-22T05:53:27.848Z,8.70
2023-04-22T05:57:30.023Z,9.00
2023-04-22T06:01:36.048Z,9.10
2023-04-22T06:05:43.270Z,8.60
2023-04-22T06:09:45.404Z,8.70
2023-04-22T06:13:49.840Z,8.40
2023-04-22T06:17:51.881Z,8.80
2023-04-22T06:21:53.980Z,9.20
2023-04-22T06:25:58.644Z,9.50
2023-04-22T06:30:00.824Z,9.70
2023-04-22T06:34:05.186Z,9.80
2023-04-22T06:38:07.360Z,9.80
2023-04-22T06:42:17.124Z,9.90
2023-04-22T06:46:39.443Z,10.20
2023-04-22T06:51:13.217Z,10.40
2023-04-22T06:55:15.366Z,10.60
2023-04-22T06:59:17.528Z,10.60
2023-04-22T07:03:21.753Z,10.20
2023-04-22T07:07:35.192Z,10.40
2023-04-22T07:11:37.097Z,10.50
2023-04-22T07:15:46.185Z,10.30
2023-04-22T07:19:48.773Z,10.50
2023-04-22T07:23:51.886Z,10.50
2023-04-22T07:27:54.250Z,10.60
2023-04-22T07:31:56.737Z,10.80
2023-04-22T07:35:58.849Z,10.60
2023-04-22T07:40:01.503Z,10.50
2023-04-22T07:44:03.603Z,10.80
2023-04-22T07:48:05.778Z,11.00
2023-04-22T07:52:08.102Z,11.00
2023-04-22T07:56:10.230Z,10.90
2023-04-22T08:00:13.377Z,10.60
2023-04-22T08:04:15.698Z,11.00
2023-04-22T08:08:17.949Z,11.30
2023-04-22T08:12:19.873Z,11.40
2023-04-22T08:16:22.038Z,11.50
2023-04-22T08:20:24.289Z,11.50
2023-04-22T08:24:26.229Z,11.70
2023-04-22T08:28:28.378Z,11.40
2023-04-22T08:32:30.452Z,11.70
2023-04-22T08:36:32.353Z,11.60
2023-04-22T08:40:35.805Z,11.70
2023-04-22T08:44:39.357Z,12.00
2023-04-22T08:48:42.171Z,12.00
2023-04-22T08:52:44.618Z,12.10
2023-04-22T08:56:49.984Z,11.90
2023-04-22T09:00:53.172Z,12.20
2023-04-22T09:04:55.187Z,12.50
2023-04-22T09:08:58.886Z,12.50
2023-04-22T09:13:03.287Z,12.70
2023-04-22T09:17:05.518Z,12.80
2023-04-22T09:21:07.719Z,13.00
2023-04-22T09:25:22.781Z,13.40
2023-04-22T09:29:31.092Z,13.80
2023-04-22T09:33:33.797Z,13.80
2023-04-22T09:37:46.596Z,14.10
2023-04-22T09:41:55.333Z,14.20
2023-04-22T09:46:00.744Z,14.20
2023-04-22T09:50:04.931Z,14.40
2023-04-22T09:54:10.330Z,14.40
2023-04-22T09:58:17.737Z,14.60
2023-04-22T10:02:28.558Z,14.30
2023-04-22T10:06:32.018Z,14.50
2023-04-22T10:10:34.976Z,14.70
2023-04-22T10:14:36.922Z,14.30
2023-04-22T10:18:40.960Z,14.90
2023-04-22T10:22:43.464Z,14.60
2023-04-22T10:26:49.360Z,14.50
2023-04-22T10:30:51.789Z,14.80
2023-04-22T10:35:12.037Z,14.60
2023-04-22T10:39:17.702Z,14.70
2023-04-22T10:43:20.278Z,15.10
2023-04-22T10:47:36.297Z,15.20
2023-04-22T10:51:39.495Z,15.50
2023-04-22T10:55:52.590Z,15.60
2023-04-22T10:59:57.728Z,15.70
2023-04-22T11:04:20.869Z,15.80
2023-04-22T11:08:28.504Z,15.70
2023-04-22T11:12:38.827Z,16.00
2023-04-22T11:16:47.158Z,15.70
2023-04-22T11:20:50.958Z,15.80
2023-04-22T11:24:59.951Z,16.00
2023-04-22T11:29:01.954Z,15.70
2023-04-22T11:33:04.239Z,15.40
2023-04-22T11:37:06.188Z,15.70
2023-04-22T11:41:08.081Z,15.80
2023-04-22T11:45:10.523Z,15.80
2023-04-22T11:49:16.389Z,15.90
2023-04-22T11:53:19.511Z,16.10
2023-04-22T11:57:22.029Z,15.50
2023-04-22T12:01:23.978Z,15.90
2023-04-22T12:05:46.257Z,16.10
2023-04-22T12:09:50.161Z,16.10
2023-04-22T12:13:54.181Z,15.90
2023-04-22T12:17:56.228Z,16.50
2023-04-22T12:21:58.287Z,16.90
2023-04-22T12:26:00.324Z,17.10
2023-04-22T12:30:04.112Z,16.80
2023-04-22T12:34:06.552Z,17.20
2023-04-22T12:38:08.541Z,16.70
2023-04-22T12:42:10.671Z,16.50
2023-04-22T12:46:12.696Z,16.50
2023-04-22T12:50:14.877Z,17.10
2023-04-22T12:54:17.064Z,17.00
2023-04-22T12:58:18.988Z,16.70
2023-04-22T13:02:20.910Z,16.70
2023-04-22T13:06:23.038Z,17.00
2023-04-22T13:10:28.079Z,16.90
2023-04-22T13:14:29.955Z,17.10
2023-04-22T13:18:32.184Z,17.40
2023-04-22T13:22:34.384Z,17.70
2023-04-22T13:26:38.357Z,18.00
2023-04-22T13:30:40.393Z,17.70
2023-04-22T13:34:42.659Z,17.90
2023-04-22T13:38:44.675Z,18.10
2023-04-22T13:42:46.824Z,18.10
2023-04-22T13:46:49.022Z,17.70
2023-04-22T13:50:51.179Z,18.00
2023-04-22T13:54:54.483Z,18.00
2023-04-22T13:58:58.157Z,18.00
2023-04-22T14:03:00.902Z,17.50
2023-04-22T14:07:04.018Z,18.00
2023-04-22T14:11:07.275Z,18.20
2023-04-22T14:15:11.344Z,18.10
2023-04-22T14:19:14.276Z,17.80
2023-04-22T14:23:16.360Z,18.10
2023-04-22T14:27:18.463Z,18.30
2023-04-22T14:31:20.790Z,18.50
2023-04-22T14:35:23.115Z,18.30
2023-04-22T14:39:25.772Z,18.20
2023-04-22T14:43:27.562Z,18.20
2023-04-22T14:47:30.274Z,18.30
2023-04-22T14:51:32.656Z,18.40
2023-04-22T14:55:35.756Z,18.00
2023-04-22T14:59:37.751Z,18.20
2023-04-22T15:03:40.172Z,18.30
2023-04-22T15:07:42.440Z,18.30
2023-04-22T15:11:44.356Z,18.30
2023-04-22T15:15:46.888Z,18.20
2023-04-22T15:19:49.866Z,17.90
2023-04-22T15:23:51.887Z,17.80
2023-04-22T15:27:56.483Z,17.80
2023-04-22T15:31:58.717Z,17.80
2023-04-22T15:36:01.671Z,17.70
2023-04-22T15:40:06.781Z,17.60
2023-04-22T15:44:12.320Z,17.50
2023-04-22T15:48:15.274Z,17.40
2023-04-22T15:52:19.426Z,17.40
2023-04-22T15:56:21.461Z,17.30
2023-04-22T16:00:23.485Z,17.20
2023-04-22T16:04:26.202Z,17.20
2023-04-22T16:08:29.698Z,17.20
2023-04-22T16:12:32.752Z,17.20
2023-04-22T16:16:36.033Z,17.10
2023-04-22T16:20:38.053Z,17.10
2023-04-22T16:24:43.308Z,17.10
2023-04-22T16:28:46.878Z,17.20
2023-04-22T16:32:49.716Z,17.30
2023-04-22T16:36:51.746Z,17.30
2023-04-22T16:40:54.348Z,17.40
2023-04-22T16:44:56.351Z,17.50
2023-04-22T16:48:58.398Z,17.50
2023-04-22T16:53:00.616Z,17.40
2023-04-22T16:57:04.755Z,17.40
2023-04-22T17:01:06.903Z,17.30
2023-04-22T17:05:09.499Z,17.10
2023-04-22T17:09:11.767Z,17.10
2023-04-22T17:13:15.004Z,17.10
2023-04-22T17:17:16.940Z,17.10
2023-04-22T17:21:18.993Z,16.90
2023-04-22T17:25:21.097Z,16.90
2023-04-22T17:29:23.679Z,16.90
2023-04-22T17:33:27.029Z,16.30
2023-04-22T17:37:29.473Z,16.10
2023-04-22T17:41:31.767Z,16.20
2023-04-22T17:45:34.272Z,16.20
2023-04-22T17:49:36.435Z,16.30
2023-04-22T17:53:40.971Z,16.40
2023-04-22T17:57:43.086Z,16.40
2023-04-22T18:01:45.324Z,16.30
2023-04-22T18:05:47.445Z,16.30
2023-04-22T18:09:49.746Z,16.10
2023-04-22T18:13:51.853Z,16.10
2023-04-22T18:17:55.030Z,16.10
2023-04-22T18:22:00.455Z,16.10
2023-04-22T18:26:09.748Z,15.40
2023-04-22T18:30:12.030Z,15.40
2023-04-22T18:34:15.731Z,15.70
2023-04-22T18:38:18.658Z,15.80
2023-04-22T18:42:20.852Z,15.70
2023-04-22T18:46:22.882Z,15.60
2023-04-22T18:50:25.025Z,15.60
2023-04-22T18:54:30.129Z,15.00
2023-04-22T18:58:32.727Z,14.90
2023-04-22T19:02:38.404Z,14.80
2023-04-22T19:06:42.408Z,14.90
2023-04-22T19:10:44.592Z,14.60
2023-04-22T19:14:49.730Z,15.10
2023-04-22T19:18:51.897Z,15.30
2023-04-22T19:22:54.297Z,15.50
2023-04-22T19:26:58.488Z,15.50
2023-04-22T19:31:01.080Z,15.60
2023-04-22T19:35:04.425Z,15.20
2023-04-22T19:39:06.845Z,15.10
2023-04-22T19:43:08.926Z,15.00
2023-04-22T19:47:11.346Z,14.90
2023-04-22T19:51:14.014Z,14.70
2023-04-22T19:55:17.434Z,14.40
2023-04-22T19:59:19.731Z,14.40
2023-04-22T20:03:22.549Z,14.20
2023-04-22T20:07:25.568Z,14.00
2023-04-22T20:11:29.381Z,14.10
2023-04-22T20:15:32.559Z,14.50
2023-04-22T20:19:34.768Z,14.90
2023-04-22T20:23:36.934Z,15.20
2023-04-22T20:27:40.703Z,15.20
2023-04-22T20:31:43.313Z,14.00
2023-04-22T20:35:46.524Z,12.70
2023-04-22T20:39:52.450Z,11.90
2023-04-22T20:43:54.835Z,12.60
2023-04-22T20:47:58.392Z,12.10
2023-04-22T20:52:01.174Z,12.30
2023-04-22T20:56:05.037Z,12.60
2023-04-22T21:00:07.782Z,13.00
2023-04-22T21:04:10.474Z,12.80
2023-04-22T21:08:23.428Z,12.50
2023-04-22T21:12:25.977Z,13.00
2023-04-22T21:16:30.566Z,13.40
2023-04-22T21:20:39.713Z,13.80
2023-04-22T21:24:42.233Z,14.10
2023-04-22T21:28:44.869Z,13.80
2023-04-22T21:32:46.955Z,13.80
2023-04-22T21:36:49.130Z,14.00
2023-04-22T21:40:51.201Z,14.20
2023-04-22T21:44:53.122Z,14.30
2023-04-22T21:48:56.067Z,14.30
2023-04-22T21:52:58.804Z,14.30
2023-04-22T21:57:01.418Z,14.10
2023-04-22T22:01:03.561Z,14.10
2023-04-22T22:05:06.117Z,14.10
2023-04-22T22:09:08.997Z,14.00
2023-04-22T22:13:11.475Z,13.90
2023-04-22T22:17:13.613Z,13.60
2023-04-22T22:21:15.730Z,13.40
2023-04-22T22:25:17.909Z,13.50
2023-04-22T22:29:20.028Z,13.70
2023-04-22T22:33:22.064Z,13.80
2023-04-22T22:37:24.036Z,13.90
2023-04-22T22:41:26.123Z,13.50
2023-04-22T22:45:28.055Z,13.60
2023-04-22T22:49:30.097Z,13.60
2023-04-22T22:53:34.486Z,13.70
2023-04-22T22:57:36.563Z,13.50
2023-04-22T23:01:38.695Z,13.00
2023-04-22T23:05:40.905Z,12.90
2023-04-22T23:09:43.088Z,13.10
2023-04-22T23:13:45.137Z,13.20
2023-04-22T23:17:47.258Z,13.30
2023-04-22T23:21:50.024Z,13.00
2023-04-22T23:25:52.385Z,12.90
2023-04-22T23:29:54.709Z,12.70
2023-04-22T23:33:57.644Z,12.60
2023-04-22T23:38:00.687Z,12.90
2023-04-22T23:42:02.589Z,13.00
2023-04-22T23:46:04.616Z,12.80
2023-04-22T23:50:07.368Z,12.90
2023-04-22T23:54:09.502Z,13.10
2023-04-22T23:58:11.692Z,13.10
